KSJN

St Johns Industrial Airpark

St Johns, Arizona, USA
METAR KSJN 230454Z AUTO 10004KT 10SM FEW060 11/06 A3014 RMK AO2 SLP149 T01110056
Observed Flight Rules
Oct-23 @ 04:54 UTC (23 minutes ago) Visual Flight Rules
Wind Visibility Clouds
100° at 4 knots 10 miles
  • Few at 6,000' AGL
Temperatures Readings
Current 11°C / 52°F
Dewpoint 6°C / 43°F
Humidity 72%
Altimeter 30.14" Hg
Pressure 1014.9 hPa
Elevation 1745
METAR KSJN 230454Z AUTO 10004KT 10SM FEW060 11/06 A3014 RMK AO2 SLP149 T01110056
Observed Flight Rules
Oct-23 @ 04:54 UTC
(23 minutes ago)
VFR
Wind Visibility
100° at 4 knots 10 miles
Clouds
  • Few at 6,000' AGL
Temperature Dewpoint
11°C / 52°F 6°C / 43°F
Humidity Altimeter Pressure
72% 30.14" Hg 1014.9 hPa